createdAt,value
2018-07-21T00:00:09.710Z,19.95
2018-07-21T00:02:38.268Z,19.95
2018-07-21T00:05:07.943Z,19.96
2018-07-21T00:07:37.532Z,20.07
2018-07-21T00:10:06.152Z,19.98
2018-07-21T00:12:34.720Z,19.94
2018-07-21T00:15:03.403Z,19.89
2018-07-21T00:17:32.063Z,19.78
2018-07-21T00:20:00.778Z,19.79
2018-07-21T00:22:29.352Z,19.76
2018-07-21T00:24:57.904Z,19.78
2018-07-21T00:27:26.674Z,19.83
2018-07-21T00:29:55.211Z,19.65
2018-07-21T00:32:23.824Z,19.62
2018-07-21T00:34:52.414Z,19.66
2018-07-21T00:37:20.984Z,19.54
2018-07-21T00:39:49.524Z,19.54
2018-07-21T00:42:18.555Z,19.57
2018-07-21T00:44:47.135Z,19.49
2018-07-21T00:47:16.083Z,19.27
2018-07-21T00:49:44.636Z,19.13
2018-07-21T00:52:13.176Z,19.07
2018-07-21T00:54:41.791Z,19.04
2018-07-21T00:57:10.822Z,19.02
2018-07-21T00:59:39.402Z,19.02
2018-07-21T01:02:07.979Z,18.93
2018-07-21T01:04:36.559Z,19.02
2018-07-21T01:07:05.236Z,19.06
2018-07-21T01:09:33.800Z,19.09
2018-07-21T01:12:02.364Z,19.06
2018-07-21T01:14:30.941Z,18.99
2018-07-21T01:16:59.536Z,18.97
2018-07-21T01:19:28.107Z,18.99
2018-07-21T01:21:56.705Z,18.93
2018-07-21T01:24:25.319Z,18.91
2018-07-21T01:26:54.934Z,18.95
2018-07-21T01:29:23.990Z,18.93
2018-07-21T01:31:52.708Z,18.87
2018-07-21T01:34:21.680Z,18.86
2018-07-21T01:36:50.268Z,18.83
2018-07-21T01:45:00.043Z,18.48
2018-07-21T01:47:29.224Z,18.36
2018-07-21T01:49:57.783Z,18.33
2018-07-21T01:52:26.365Z,18.33
2018-07-21T01:54:54.932Z,18.35
2018-07-21T01:57:23.774Z,18.30
2018-07-21T01:59:52.345Z,18.30
2018-07-21T02:02:21.885Z,18.31
2018-07-21T02:04:50.443Z,18.30
2018-07-21T02:07:20.540Z,18.30
2018-07-21T02:09:49.192Z,18.27
2018-07-21T02:12:17.775Z,18.15
2018-07-21T02:14:46.507Z,18.11
2018-07-21T02:17:15.161Z,18.12
2018-07-21T02:19:43.833Z,18.14
2018-07-21T02:22:12.450Z,18.14
2018-07-21T02:24:41.451Z,18.23
2018-07-21T02:27:10.292Z,18.27
2018-07-21T02:29:38.870Z,18.12
2018-07-21T02:32:07.484Z,18.14
2018-07-21T02:34:36.396Z,18.15
2018-07-21T02:37:05.087Z,18.22
2018-07-21T02:39:33.621Z,18.25
2018-07-21T02:42:02.261Z,18.20
2018-07-21T02:44:30.852Z,18.29
2018-07-21T02:46:59.406Z,18.16
2018-07-21T02:49:27.959Z,18.09
2018-07-21T02:51:56.522Z,17.98
2018-07-21T02:54:25.175Z,17.98
2018-07-21T02:56:53.719Z,17.93
2018-07-21T02:59:22.662Z,17.92
2018-07-21T03:01:51.223Z,17.92
2018-07-21T03:04:20.028Z,17.94
2018-07-21T03:06:48.603Z,17.93
2018-07-21T03:09:17.165Z,17.85
2018-07-21T03:11:45.738Z,17.79
2018-07-21T03:14:14.314Z,17.82
2018-07-21T03:16:42.859Z,17.78
2018-07-21T03:19:11.578Z,17.67
2018-07-21T03:21:40.169Z,17.63
2018-07-21T03:24:08.780Z,17.49
2018-07-21T03:26:37.487Z,17.40
2018-07-21T03:29:06.055Z,17.38
2018-07-21T03:31:34.623Z,17.39
2018-07-21T03:34:04.301Z,17.42
2018-07-21T03:36:32.864Z,17.43
2018-07-21T03:39:01.455Z,17.52
2018-07-21T03:41:30.140Z,17.47
2018-07-21T03:43:58.691Z,17.36
2018-07-21T03:46:27.264Z,17.42
2018-07-21T03:48:55.900Z,17.48
2018-07-21T03:51:25.369Z,17.49
2018-07-21T03:53:54.007Z,17.46
2018-07-21T03:56:23.030Z,17.37
2018-07-21T03:58:51.603Z,17.41
2018-07-21T04:01:20.572Z,17.51
2018-07-21T04:03:49.144Z,17.48
2018-07-21T04:06:18.598Z,17.51
2018-07-21T04:08:47.117Z,17.55
2018-07-21T04:11:16.135Z,17.62
2018-07-21T04:13:44.701Z,17.71
2018-07-21T04:16:13.420Z,17.78
2018-07-21T04:18:42.080Z,17.83
2018-07-21T04:21:11.124Z,17.87
2018-07-21T04:23:39.676Z,17.88
2018-07-21T04:26:08.261Z,17.89
2018-07-21T04:28:36.822Z,17.89
2018-07-21T04:31:05.488Z,17.93
2018-07-21T04:33:34.093Z,18.01
2018-07-21T04:36:02.640Z,18.09
2018-07-21T04:38:31.341Z,17.94
2018-07-21T04:40:59.976Z,17.83
2018-07-21T04:43:30.832Z,17.78
2018-07-21T04:45:59.476Z,17.74
2018-07-21T04:48:28.041Z,17.73
2018-07-21T04:50:56.620Z,17.84
2018-07-21T04:53:25.150Z,17.88
2018-07-21T04:55:53.724Z,17.92
2018-07-21T04:58:22.285Z,18.02
2018-07-21T05:00:50.957Z,18.17
2018-07-21T05:03:19.435Z,18.22
2018-07-21T05:05:47.991Z,18.27
2018-07-21T05:08:16.688Z,18.41
2018-07-21T05:10:45.292Z,18.54
2018-07-21T05:13:14.296Z,18.64
2018-07-21T05:15:42.899Z,18.76
2018-07-21T05:18:11.564Z,18.84
2018-07-21T05:20:40.185Z,18.95
2018-07-21T05:23:19.280Z,18.93
2018-07-21T05:25:56.121Z,19.03
2018-07-21T05:28:33.459Z,19.17
2018-07-21T05:31:14.516Z,19.32
2018-07-21T05:33:51.594Z,19.44
2018-07-21T05:36:28.660Z,19.50
2018-07-21T05:39:09.388Z,19.63
2018-07-21T05:41:46.496Z,19.75
2018-07-21T05:44:26.257Z,19.86
2018-07-21T05:47:03.652Z,19.93
2018-07-21T05:49:42.789Z,20.05
2018-07-21T05:52:20.236Z,20.11
2018-07-21T05:55:00.677Z,20.24
2018-07-21T05:57:38.009Z,20.23
2018-07-21T06:00:18.310Z,20.40
2018-07-21T06:02:57.659Z,20.54
2018-07-21T06:05:34.554Z,20.61
2018-07-21T06:08:11.745Z,20.77
2018-07-21T06:10:52.862Z,20.86
2018-07-21T06:13:37.592Z,20.99
2018-07-21T06:16:14.877Z,21.17
2018-07-21T06:18:55.303Z,21.34
2018-07-21T06:21:32.699Z,21.45
2018-07-21T06:24:09.818Z,21.55
2018-07-21T06:26:39.811Z,21.68
2018-07-21T06:29:18.682Z,21.80
2018-07-21T06:31:47.232Z,21.97
2018-07-21T06:34:15.853Z,22.11
2018-07-21T06:36:44.467Z,22.33
2018-07-21T06:39:13.558Z,22.49
2018-07-21T06:41:42.606Z,22.62
2018-07-21T06:44:11.690Z,22.81
2018-07-21T06:46:40.346Z,22.95
2018-07-21T06:49:08.951Z,23.04
2018-07-21T06:51:37.600Z,23.17
2018-07-21T06:54:06.496Z,23.19
2018-07-21T06:56:35.096Z,23.30
2018-07-21T06:59:03.697Z,23.40
2018-07-21T07:01:32.274Z,23.48
2018-07-21T07:04:00.946Z,23.48
2018-07-21T07:06:29.797Z,23.57
2018-07-21T07:08:58.545Z,23.66
2018-07-21T07:11:27.103Z,23.77
2018-07-21T07:13:55.700Z,23.88
2018-07-21T07:16:24.317Z,24.09
2018-07-21T07:18:52.814Z,24.13
2018-07-21T07:21:21.391Z,24.23
2018-07-21T07:23:49.984Z,24.27
2018-07-21T07:26:18.644Z,24.37
2018-07-21T07:28:47.209Z,24.49
2018-07-21T07:31:15.987Z,24.49
2018-07-21T07:33:44.527Z,24.61
2018-07-21T07:36:13.188Z,24.89
2018-07-21T07:38:41.831Z,25.13
2018-07-21T07:41:11.592Z,25.10
2018-07-21T07:43:40.322Z,25.15
2018-07-21T07:46:09.040Z,25.17
2018-07-21T07:48:37.612Z,25.12
2018-07-21T07:51:06.253Z,25.05
2018-07-21T07:53:35.045Z,25.18
2018-07-21T07:56:03.620Z,25.26
2018-07-21T07:58:32.199Z,25.24
2018-07-21T08:01:00.789Z,25.34
2018-07-21T08:03:32.312Z,25.41
2018-07-21T08:06:00.908Z,25.39
2018-07-21T08:08:30.263Z,25.45
2018-07-21T08:10:58.902Z,25.40
2018-07-21T08:13:27.528Z,25.49
2018-07-21T08:15:56.064Z,25.68
2018-07-21T08:18:24.649Z,25.73
2018-07-21T08:20:53.232Z,25.86
2018-07-21T08:23:21.821Z,25.97
2018-07-21T08:25:50.828Z,26.15
2018-07-21T08:28:19.881Z,26.18
2018-07-21T08:30:48.468Z,26.19
2018-07-21T08:33:17.676Z,25.60
2018-07-21T08:36:05.467Z,26.09
2018-07-21T08:38:34.043Z,26.07
2018-07-21T08:41:02.631Z,26.20
2018-07-21T08:43:31.340Z,26.33
2018-07-21T08:45:59.905Z,26.26
2018-07-21T08:48:28.448Z,26.37
2018-07-21T08:50:57.061Z,26.26
2018-07-21T08:53:25.730Z,26.30
2018-07-21T08:55:54.560Z,26.26
2018-07-21T08:58:23.619Z,26.27
2018-07-21T09:00:52.168Z,26.37
2018-07-21T09:03:20.797Z,26.46
2018-07-21T09:05:49.440Z,26.46
2018-07-21T09:08:25.456Z,26.40
2018-07-21T09:10:54.019Z,26.38
2018-07-21T09:13:22.568Z,26.40
2018-07-21T09:15:51.141Z,26.47
2018-07-21T09:18:19.868Z,26.41
2018-07-21T09:20:48.460Z,26.40
2018-07-21T09:23:18.056Z,26.39
2018-07-21T09:25:46.624Z,26.59
2018-07-21T09:28:15.179Z,26.61
2018-07-21T09:30:43.950Z,26.72
2018-07-21T09:33:13.856Z,26.73
2018-07-21T09:35:42.528Z,26.91
2018-07-21T09:38:14.255Z,27.19
2018-07-21T09:40:42.909Z,27.18
2018-07-21T09:43:14.076Z,27.31
2018-07-21T09:48:33.148Z,27.15
2018-07-21T09:51:01.762Z,27.23
2018-07-21T09:53:30.812Z,27.43
2018-07-21T09:55:59.468Z,27.45
2018-07-21T09:58:28.221Z,27.41
2018-07-21T10:01:02.202Z,27.50
2018-07-21T10:03:31.531Z,27.61
2018-07-21T10:06:01.032Z,27.41
2018-07-21T10:08:29.897Z,27.46
2018-07-21T10:10:59.264Z,27.61
2018-07-21T10:13:27.921Z,27.94
2018-07-21T10:15:56.500Z,28.11
2018-07-21T10:18:25.168Z,28.43
2018-07-21T10:20:53.728Z,28.47
2018-07-21T10:23:22.427Z,28.53
2018-07-21T10:25:56.159Z,28.40
2018-07-21T10:28:30.042Z,28.55
2018-07-21T10:30:58.589Z,28.65
2018-07-21T10:33:27.209Z,28.34
2018-07-21T10:35:56.051Z,28.44
2018-07-21T10:38:24.665Z,28.59
2018-07-21T10:40:53.387Z,28.52
2018-07-21T10:43:22.448Z,28.40
2018-07-21T10:45:51.054Z,28.45
2018-07-21T10:48:19.615Z,28.51
2018-07-21T10:50:48.248Z,28.86
2018-07-21T10:53:16.896Z,29.27
2018-07-21T10:55:45.478Z,29.72
2018-07-21T10:58:14.158Z,29.78
2018-07-21T11:00:44.427Z,29.51
2018-07-21T11:03:14.573Z,29.23
2018-07-21T11:05:43.261Z,29.02
2018-07-21T11:08:11.939Z,28.89
2018-07-21T11:10:41.210Z,28.89
2018-07-21T11:13:09.861Z,28.94
2018-07-21T11:15:38.441Z,29.06
2018-07-21T11:18:07.019Z,29.27
2018-07-21T11:20:35.841Z,29.55
2018-07-21T11:23:04.770Z,29.71
2018-07-21T11:25:35.643Z,29.76
2018-07-21T11:28:04.509Z,29.77
2018-07-21T11:30:33.302Z,29.86
2018-07-21T11:33:01.849Z,29.90
2018-07-21T11:35:30.869Z,29.93
2018-07-21T11:40:50.982Z,29.66
2018-07-21T11:43:22.290Z,29.82
2018-07-21T11:45:51.052Z,29.94
2018-07-21T11:48:20.245Z,29.84
2018-07-21T11:50:48.835Z,29.84
2018-07-21T11:53:19.084Z,29.78
2018-07-21T11:55:47.669Z,29.03
2018-07-21T11:58:16.317Z,28.63
2018-07-21T12:00:44.944Z,28.03
2018-07-21T12:03:17.930Z,27.71
2018-07-21T12:05:46.792Z,27.55
2018-07-21T12:08:15.527Z,27.53
2018-07-21T12:10:44.999Z,27.53
2018-07-21T12:13:15.283Z,27.10
2018-07-21T12:15:44.758Z,26.56
2018-07-21T12:18:13.485Z,25.90
2018-07-21T12:20:42.050Z,25.36
2018-07-21T12:23:11.117Z,25.10
2018-07-21T12:25:39.683Z,25.16
2018-07-21T12:28:08.220Z,25.30
2018-07-21T12:30:36.800Z,25.24
2018-07-21T12:33:05.421Z,25.26
2018-07-21T12:35:34.131Z,25.18
2018-07-21T12:38:02.704Z,24.65
2018-07-21T12:40:31.295Z,24.75
2018-07-21T12:42:59.854Z,24.48
2018-07-21T12:45:28.565Z,24.45
2018-07-21T12:47:57.107Z,24.28
2018-07-21T12:50:25.655Z,23.93
2018-07-21T12:52:54.625Z,23.69
2018-07-21T12:55:23.188Z,23.84
2018-07-21T12:57:51.807Z,23.89
2018-07-21T13:00:20.423Z,23.46
2018-07-21T13:02:50.549Z,23.64
2018-07-21T13:05:19.773Z,23.83
2018-07-21T13:07:48.355Z,23.89
2018-07-21T13:10:16.952Z,23.55
2018-07-21T13:12:45.551Z,23.46
2018-07-21T13:15:16.291Z,23.52
2018-07-21T13:17:44.837Z,23.56
2018-07-21T13:20:13.428Z,23.65
2018-07-21T13:22:41.978Z,23.35
2018-07-21T13:25:11.243Z,23.26
2018-07-21T13:27:39.825Z,23.02
2018-07-21T13:30:09.142Z,22.85
2018-07-21T13:32:37.814Z,22.72
2018-07-21T13:35:07.189Z,22.66
2018-07-21T13:37:35.789Z,22.66
2018-07-21T13:40:05.085Z,22.47
2018-07-21T13:42:33.927Z,22.25
2018-07-21T13:45:02.592Z,22.22
2018-07-21T13:47:32.302Z,22.21
2018-07-21T13:50:01.298Z,22.15
2018-07-21T13:52:30.947Z,22.03
2018-07-21T13:54:59.681Z,22.24
2018-07-21T13:57:28.424Z,22.48
2018-07-21T13:59:57.026Z,22.42
2018-07-21T14:02:25.864Z,22.37
2018-07-21T14:04:54.531Z,22.31
2018-07-21T14:07:27.802Z,22.28
2018-07-21T14:09:56.351Z,22.17
2018-07-21T14:12:25.096Z,22.04
2018-07-21T14:14:53.837Z,22.06
2018-07-21T14:17:22.445Z,22.12
2018-07-21T14:19:51.296Z,22.10
2018-07-21T14:22:19.975Z,22.08
2018-07-21T14:24:48.603Z,22.08
2018-07-21T14:27:21.417Z,22.29
2018-07-21T14:29:50.798Z,22.07
2018-07-21T14:32:19.731Z,22.22
2018-07-21T14:34:48.554Z,22.13
2018-07-21T14:37:17.347Z,22.33
2018-07-21T14:39:45.967Z,22.57
2018-07-21T14:42:14.593Z,22.70
2018-07-21T14:44:43.238Z,22.62
2018-07-21T14:47:12.453Z,22.71
2018-07-21T14:49:41.064Z,22.56
2018-07-21T14:52:09.704Z,22.58
2018-07-21T14:54:38.440Z,22.32
2018-07-21T14:57:07.015Z,22.23
2018-07-21T14:59:35.732Z,21.96
2018-07-21T15:02:04.656Z,22.11
2018-07-21T15:04:33.256Z,22.29
2018-07-21T15:07:01.865Z,22.50
2018-07-21T15:09:30.639Z,22.49
2018-07-21T15:11:59.885Z,22.30
2018-07-21T15:14:28.670Z,22.35
2018-07-21T15:16:57.514Z,22.55
2018-07-21T15:19:26.212Z,22.61
2018-07-21T15:21:54.820Z,22.52
2018-07-21T15:24:23.553Z,22.56
2018-07-21T15:26:52.371Z,22.57
2018-07-21T15:29:21.687Z,22.69
2018-07-21T15:31:50.369Z,22.64
2018-07-21T15:34:18.983Z,22.81
2018-07-21T15:36:48.088Z,23.11
2018-07-21T15:39:16.743Z,23.24
2018-07-21T15:41:45.568Z,23.27
2018-07-21T15:44:14.161Z,23.22
2018-07-21T15:46:42.763Z,22.88
2018-07-21T15:49:11.417Z,22.46
2018-07-21T15:51:40.084Z,22.75
2018-07-21T15:54:08.697Z,22.73
2018-07-21T15:56:37.394Z,22.70
2018-07-21T15:59:05.981Z,22.73
2018-07-21T16:01:34.778Z,22.82
2018-07-21T16:04:03.389Z,22.92
2018-07-21T16:06:32.832Z,23.00
2018-07-21T16:09:01.457Z,23.14
2018-07-21T16:11:30.067Z,23.39
2018-07-21T16:13:58.632Z,23.26
2018-07-21T16:16:27.198Z,23.31
2018-07-21T16:18:55.768Z,22.99
2018-07-21T16:21:24.554Z,23.09
2018-07-21T16:23:53.118Z,22.80
2018-07-21T16:26:21.679Z,22.96
2018-07-21T16:28:50.338Z,22.99
2018-07-21T16:31:18.894Z,23.23
2018-07-21T16:33:47.528Z,23.34
2018-07-21T16:36:16.150Z,23.23
2018-07-21T16:38:45.345Z,23.21
2018-07-21T16:41:14.412Z,22.97
2018-07-21T16:43:43.048Z,22.99
2018-07-21T16:46:11.788Z,22.56
2018-07-21T16:48:40.607Z,22.27
2018-07-21T16:51:09.476Z,22.80
2018-07-21T16:53:38.570Z,22.87
2018-07-21T16:56:07.389Z,22.58
2018-07-21T16:58:35.988Z,22.60
2018-07-21T17:01:05.233Z,22.78
2018-07-21T17:03:34.420Z,22.82
2018-07-21T17:06:03.496Z,22.43
2018-07-21T17:08:32.543Z,22.52
2018-07-21T17:11:01.586Z,22.54
2018-07-21T17:13:32.683Z,22.35
2018-07-21T17:16:03.326Z,22.55
2018-07-21T17:18:32.489Z,22.73
2018-07-21T17:21:02.389Z,22.62
2018-07-21T17:23:31.817Z,22.72
2018-07-21T17:26:02.591Z,22.85
2018-07-21T17:28:32.164Z,22.85
2018-07-21T17:31:02.117Z,22.76
2018-07-21T17:33:31.593Z,22.76
2018-07-21T17:36:00.697Z,22.44
2018-07-21T17:38:29.884Z,22.58
2018-07-21T17:40:59.021Z,22.64
2018-07-21T17:43:28.101Z,22.57
2018-07-21T17:45:57.241Z,22.59
2018-07-21T17:48:26.536Z,22.27
2018-07-21T17:50:55.625Z,22.21
2018-07-21T17:53:24.761Z,22.29
2018-07-21T17:55:53.867Z,22.35
2018-07-21T17:58:23.024Z,22.49
2018-07-21T18:00:52.244Z,22.17
2018-07-21T18:03:20.831Z,22.12
2018-07-21T18:05:51.366Z,21.98
2018-07-21T18:08:19.935Z,21.95
2018-07-21T18:10:49.073Z,22.04
2018-07-21T18:13:17.645Z,21.96
2018-07-21T18:15:46.360Z,21.67
2018-07-21T18:18:14.967Z,21.82
2018-07-21T18:20:43.678Z,21.82
2018-07-21T18:23:13.112Z,21.70
2018-07-21T18:25:41.879Z,21.76
2018-07-21T18:28:10.493Z,21.88
2018-07-21T18:30:39.085Z,21.55
2018-07-21T18:33:07.681Z,21.12
2018-07-21T18:35:36.242Z,21.26
2018-07-21T18:38:05.650Z,21.38
2018-07-21T18:40:34.240Z,21.49
2018-07-21T18:43:02.866Z,21.51
2018-07-21T18:45:31.578Z,21.39
2018-07-21T18:48:00.709Z,21.44
2018-07-21T18:50:29.354Z,21.52
2018-07-21T18:52:57.891Z,21.52
2018-07-21T18:55:26.772Z,21.59
2018-07-21T18:57:55.720Z,21.60
2018-07-21T19:00:24.405Z,21.42
2018-07-21T19:02:53.599Z,21.44
2018-07-21T19:05:22.209Z,21.53
2018-07-21T19:07:50.891Z,21.54
2018-07-21T19:10:19.569Z,21.48
2018-07-21T19:12:49.077Z,21.63
2018-07-21T19:16:22.725Z,21.68
2018-07-21T19:18:52.494Z,21.47
2018-07-21T19:21:22.514Z,21.52
2018-07-21T19:23:52.103Z,21.61
2018-07-21T19:26:25.729Z,21.26
2018-07-21T19:28:54.892Z,21.31
2018-07-21T19:31:23.530Z,21.20
2018-07-21T19:33:52.163Z,21.37
2018-07-21T19:36:20.983Z,21.62
2018-07-21T19:38:50.302Z,21.65
2018-07-21T19:41:24.436Z,21.72
2018-07-21T19:43:53.043Z,21.62
2018-07-21T19:46:21.963Z,21.59
2018-07-21T19:48:50.531Z,21.67
2018-07-21T19:51:19.163Z,21.58
2018-07-21T19:53:47.788Z,21.61
2018-07-21T19:56:16.369Z,21.70
2018-07-21T19:58:45.067Z,21.51
2018-07-21T20:01:13.645Z,21.48
2018-07-21T20:03:42.272Z,21.51
2018-07-21T20:06:11.189Z,21.51
2018-07-21T20:08:40.847Z,21.48
2018-07-21T20:11:09.470Z,21.50
2018-07-21T20:13:38.054Z,21.45
2018-07-21T20:16:06.656Z,21.35
2018-07-21T20:18:35.307Z,21.30
2018-07-21T20:21:03.949Z,21.35
2018-07-21T20:23:33.060Z,21.39
2018-07-21T20:26:01.800Z,21.47
2018-07-21T20:28:30.440Z,21.47
2018-07-21T20:30:59.023Z,21.46
2018-07-21T20:33:27.737Z,21.30
2018-07-21T20:35:56.855Z,21.20
2018-07-21T20:38:25.525Z,21.03
2018-07-21T20:40:54.158Z,21.02
2018-07-21T20:43:22.901Z,21.03
2018-07-21T20:45:51.496Z,20.97
2018-07-21T20:48:20.288Z,21.04
2018-07-21T20:50:48.887Z,21.08
2018-07-21T20:53:17.549Z,21.06
2018-07-21T20:55:46.155Z,21.03
2018-07-21T20:58:14.749Z,20.95
2018-07-21T21:00:43.298Z,21.02
2018-07-21T21:03:12.449Z,21.00
2018-07-21T21:05:41.320Z,20.94
2018-07-21T21:08:10.019Z,20.80
2018-07-21T21:10:39.077Z,20.78
2018-07-21T21:13:08.041Z,20.73
2018-07-21T21:15:36.653Z,20.69
2018-07-21T21:18:06.139Z,20.66
2018-07-21T21:20:34.692Z,20.61
2018-07-21T21:23:03.308Z,20.58
2018-07-21T21:25:32.302Z,20.51
2018-07-21T21:28:00.895Z,20.35
2018-07-21T21:30:29.577Z,20.30
2018-07-21T21:32:58.209Z,20.32
2018-07-21T21:35:26.814Z,20.16
2018-07-21T21:37:55.475Z,20.25
2018-07-21T21:40:24.087Z,20.34
2018-07-21T21:42:53.063Z,20.30
2018-07-21T21:45:21.609Z,20.20
2018-07-21T21:47:50.195Z,20.21
2018-07-21T21:50:18.796Z,20.25
2018-07-21T21:52:47.483Z,20.32
2018-07-21T21:55:16.071Z,20.39
2018-07-21T21:57:44.867Z,20.39
2018-07-21T22:00:13.786Z,20.37
2018-07-21T22:02:42.448Z,20.33
2018-07-21T22:05:12.802Z,20.34
2018-07-21T22:07:42.219Z,20.29
2018-07-21T22:10:10.835Z,20.12
2018-07-21T22:12:39.456Z,19.97
2018-07-21T22:15:16.528Z,20.01
2018-07-21T22:17:45.163Z,19.98
2018-07-21T22:20:13.749Z,20.06
2018-07-21T22:22:42.311Z,20.14
2018-07-21T22:25:11.326Z,20.22
2018-07-21T22:27:39.920Z,20.28
2018-07-21T22:30:08.575Z,20.19
2018-07-21T22:32:37.207Z,20.13
2018-07-21T22:35:05.760Z,20.16
2018-07-21T22:37:34.526Z,20.19
2018-07-21T22:40:03.103Z,20.13
2018-07-21T22:42:31.653Z,20.20
2018-07-21T22:45:00.541Z,20.13
2018-07-21T22:47:29.111Z,20.12
2018-07-21T22:49:57.704Z,20.11
2018-07-21T22:52:26.374Z,20.02
2018-07-21T22:54:55.016Z,20.04
2018-07-21T22:57:23.772Z,20.15
2018-07-21T22:59:52.533Z,20.25
2018-07-21T23:02:21.157Z,20.34
2018-07-21T23:04:49.755Z,20.37
2018-07-21T23:07:18.349Z,20.30
2018-07-21T23:09:46.948Z,20.32
2018-07-21T23:12:15.612Z,20.30
2018-07-21T23:14:44.214Z,20.27
2018-07-21T23:17:13.250Z,20.26
2018-07-21T23:19:41.860Z,20.35
2018-07-21T23:22:10.427Z,20.21
2018-07-21T23:24:39.046Z,20.25
2018-07-21T23:27:07.664Z,20.32
2018-07-21T23:29:36.302Z,20.36
2018-07-21T23:32:04.919Z,20.42
2018-07-21T23:34:33.493Z,20.48
2018-07-21T23:37:02.059Z,20.48
2018-07-21T23:39:30.668Z,20.42
2018-07-21T23:41:59.264Z,20.37
2018-07-21T23:44:27.839Z,20.34
2018-07-21T23:46:56.452Z,20.29
2018-07-21T23:49:25.033Z,20.32
2018-07-21T23:51:53.607Z,20.21
2018-07-21T23:54:22.494Z,20.24
2018-07-21T23:56:51.040Z,20.28
2018-07-21T23:59:19.659Z,20.35
